createdAt,value
2019-06-25T00:00:02.996Z,1018.02
2019-06-25T00:01:12.963Z,1018.02
2019-06-25T00:02:22.673Z,1017.98
2019-06-25T00:03:32.394Z,1018
2019-06-25T00:04:42.368Z,1018
2019-06-25T00:05:52.448Z,1017.99
2019-06-25T00:07:02.150Z,1018.02
2019-06-25T00:08:12.116Z,1017.99
2019-06-25T00:09:22.080Z,1018.03
2019-06-25T00:10:31.789Z,1018.01
2019-06-25T00:11:41.766Z,1018.01
2019-06-25T00:12:51.532Z,1018.01
2019-06-25T00:14:01.321Z,1018.01
2019-06-25T00:15:11.285Z,1017.96
2019-06-25T00:16:21.317Z,1017.93
2019-06-25T00:17:31.281Z,1017.99
2019-06-25T00:18:41.242Z,1017.98
2019-06-25T00:19:50.954Z,1017.99
2019-06-25T00:21:00.412Z,1017.98
2019-06-25T00:22:10.135Z,1017.99
2019-06-25T00:23:19.836Z,1017.99
2019-06-25T00:24:29.559Z,1018
2019-06-25T00:25:39.527Z,1017.98
2019-06-25T00:26:49.479Z,1017.94
2019-06-25T00:27:59.492Z,1017.98
2019-06-25T00:29:09.273Z,1017.94
2019-06-25T00:30:19.252Z,1017.93
2019-06-25T00:31:28.703Z,1017.94
2019-06-25T00:32:38.665Z,1017.92
2019-06-25T00:33:48.399Z,1017.92
2019-06-25T00:34:58.101Z,1017.86
2019-06-25T00:36:08.061Z,1017.85
2019-06-25T00:37:17.558Z,1017.87
2019-06-25T00:38:27.345Z,1017.85
2019-06-25T00:39:37.585Z,1017.85
2019-06-25T00:40:47.302Z,1017.82
2019-06-25T00:41:57.304Z,1017.85
2019-06-25T00:43:06.763Z,1017.83
2019-06-25T00:44:16.721Z,1017.84
2019-06-25T00:45:26.439Z,1017.82
2019-06-25T00:46:36.443Z,1017.85
2019-06-25T00:47:46.442Z,1017.84
2019-06-25T00:48:55.897Z,1017.81
2019-06-25T00:50:05.869Z,1017.78
2019-06-25T00:51:15.584Z,1017.83
2019-06-25T00:52:25.071Z,1017.78
2019-06-25T00:53:35.037Z,1017.79
2019-06-25T00:54:44.769Z,1017.79
2019-06-25T00:55:54.503Z,1017.83
2019-06-25T00:57:04.473Z,1017.78
2019-06-25T00:58:14.437Z,1017.77
2019-06-25T00:59:24.412Z,1017.77
2019-06-25T01:00:34.169Z,1017.79
2019-06-25T01:01:43.629Z,1017.8
2019-06-25T01:02:53.623Z,1017.8
2019-06-25T01:04:03.624Z,1017.83
2019-06-25T01:05:13.391Z,1017.86
2019-06-25T01:06:23.336Z,1017.86
2019-06-25T01:07:33.071Z,1017.84
2019-06-25T01:08:42.807Z,1017.84
2019-06-25T01:09:52.289Z,1017.84
2019-06-25T01:11:02.016Z,1017.85
2019-06-25T01:12:11.990Z,1017.82
2019-06-25T01:13:21.979Z,1017.79
2019-06-25T01:14:31.934Z,1017.79
2019-06-25T01:15:41.945Z,1017.79
2019-06-25T01:16:51.955Z,1017.79
2019-06-25T01:18:01.953Z,1017.74
2019-06-25T01:19:11.966Z,1017.75
2019-06-25T01:20:21.949Z,1017.8
2019-06-25T01:21:31.736Z,1017.76
2019-06-25T01:22:41.711Z,1017.78
2019-06-25T01:23:51.671Z,1017.76
2019-06-25T01:25:01.622Z,1017.75
2019-06-25T01:26:11.573Z,1017.77
2019-06-25T01:27:21.535Z,1017.74
2019-06-25T01:28:31.298Z,1017.76
2019-06-25T01:29:41.039Z,1017.76
2019-06-25T01:30:50.748Z,1017.75
2019-06-25T01:32:00.742Z,1017.77
2019-06-25T01:33:10.475Z,1017.76
2019-06-25T01:34:20.189Z,1017.74
2019-06-25T01:35:30.141Z,1017.75
2019-06-25T01:36:39.869Z,1017.76
2019-06-25T01:37:49.581Z,1017.75
2019-06-25T01:38:59.618Z,1017.74
2019-06-25T01:40:09.345Z,1017.7
2019-06-25T01:41:19.101Z,1017.7
2019-06-25T01:42:28.866Z,1017.67
2019-06-25T01:43:38.586Z,1017.71
2019-06-25T01:44:48.577Z,1017.66
2019-06-25T01:45:58.305Z,1017.65
2019-06-25T01:47:08.291Z,1017.64
2019-06-25T01:48:17.941Z,1017.61
2019-06-25T01:49:27.943Z,1017.64
2019-06-25T01:50:37.694Z,1017.66
2019-06-25T01:51:47.409Z,1017.71
2019-06-25T01:52:57.124Z,1017.69
2019-06-25T01:54:09.668Z,1017.69
2019-06-25T01:55:19.393Z,1017.66
2019-06-25T01:56:29.343Z,1017.69
2019-06-25T01:57:39.084Z,1017.64
2019-06-25T01:58:48.292Z,1017.65
2019-06-25T01:59:57.552Z,1017.66
2019-06-25T02:01:07.120Z,1017.66
2019-06-25T02:02:17.110Z,1017.65
2019-06-25T02:03:26.826Z,1017.67
2019-06-25T02:04:36.838Z,1017.67
2019-06-25T02:05:48.837Z,1017.64
2019-06-25T02:06:58.656Z,1017.64
2019-06-25T02:08:08.385Z,1017.68
2019-06-25T02:09:18.405Z,1017.65
2019-06-25T02:10:28.563Z,1017.67
2019-06-25T02:11:38.586Z,1017.66
2019-06-25T02:12:48.441Z,1017.67
2019-06-25T02:13:58.394Z,1017.68
2019-06-25T02:15:08.348Z,1017.65
2019-06-25T02:16:17.817Z,1017.67
2019-06-25T02:17:27.942Z,1017.64
2019-06-25T02:18:37.946Z,1017.62
2019-06-25T02:19:47.695Z,1017.64
2019-06-25T02:20:57.424Z,1017.63
2019-06-25T02:22:07.442Z,1017.61
2019-06-25T02:23:17.393Z,1017.61
2019-06-25T02:24:27.369Z,1017.63
2019-06-25T02:25:37.077Z,1017.6
2019-06-25T02:26:46.791Z,1017.58
2019-06-25T02:27:56.752Z,1017.57
2019-06-25T02:29:06.750Z,1017.55
2019-06-25T02:30:16.466Z,1017.53
2019-06-25T02:31:26.441Z,1017.54
2019-06-25T02:32:36.405Z,1017.57
2019-06-25T02:33:46.187Z,1017.54
2019-06-25T02:34:55.966Z,1017.57
2019-06-25T02:36:05.476Z,1017.57
2019-06-25T02:37:15.452Z,1017.54
2019-06-25T02:38:25.228Z,1017.5
2019-06-25T02:39:35.189Z,1017.5
2019-06-25T02:40:45.139Z,1017.52
2019-06-25T02:41:55.192Z,1017.56
2019-06-25T02:43:05.203Z,1017.54
2019-06-25T02:44:14.746Z,1017.54
2019-06-25T02:45:24.470Z,1017.51
2019-06-25T02:46:34.453Z,1017.44
2019-06-25T02:47:44.189Z,1017.47
2019-06-25T02:48:54.154Z,1017.49
2019-06-25T02:50:04.127Z,1017.49
2019-06-25T02:51:14.162Z,1017.47
2019-06-25T02:52:24.148Z,1017.47
2019-06-25T02:53:33.898Z,1017.47
2019-06-25T02:54:43.907Z,1017.52
2019-06-25T02:55:53.377Z,1017.51
2019-06-25T02:57:03.115Z,1017.52
2019-06-25T02:58:12.838Z,1017.5
2019-06-25T02:59:22.826Z,1017.48
2019-06-25T03:00:32.872Z,1017.47
2019-06-25T03:01:42.467Z,1017.54
2019-06-25T03:02:52.192Z,1017.51
2019-06-25T03:04:02.288Z,1017.51
2019-06-25T03:05:12.276Z,1017.52
2019-06-25T03:06:22.288Z,1017.55
2019-06-25T03:07:32.011Z,1017.52
2019-06-25T03:08:41.741Z,1017.52
2019-06-25T03:09:51.726Z,1017.56
2019-06-25T03:11:01.195Z,1017.56
2019-06-25T03:12:15.161Z,1017.59
2019-06-25T03:13:24.888Z,1017.56
2019-06-25T03:14:34.889Z,1017.54
2019-06-25T03:15:44.940Z,1017.53
2019-06-25T03:16:54.925Z,1017.56
2019-06-25T03:18:04.687Z,1017.52
2019-06-25T03:19:14.424Z,1017.52
2019-06-25T03:20:23.885Z,1017.5
2019-06-25T03:21:33.621Z,1017.48
2019-06-25T03:22:43.673Z,1017.47
2019-06-25T03:23:53.676Z,1017.42
2019-06-25T03:25:02.948Z,1017.45
2019-06-25T03:26:12.919Z,1017.46
2019-06-25T03:27:22.646Z,1017.43
2019-06-25T03:28:32.606Z,1017.43
2019-06-25T03:29:42.107Z,1017.43
2019-06-25T03:30:52.129Z,1017.43
2019-06-25T03:32:07.639Z,1017.42
2019-06-25T03:33:19.932Z,1017.42
2019-06-25T03:34:29.959Z,1017.42
2019-06-25T03:35:39.987Z,1017.44
2019-06-25T03:36:49.456Z,1017.39
2019-06-25T03:37:59.194Z,1017.41
2019-06-25T03:39:09.969Z,1017.4
2019-06-25T03:40:20.013Z,1017.4
2019-06-25T03:41:29.803Z,1017.39
2019-06-25T03:42:39.081Z,1017.43
2019-06-25T03:43:49.055Z,1017.44
2019-06-25T03:44:59.004Z,1017.47
2019-06-25T03:46:08.979Z,1017.5
2019-06-25T03:47:18.710Z,1017.52
2019-06-25T03:48:28.417Z,1017.51
2019-06-25T03:49:38.455Z,1017.52
2019-06-25T03:50:48.401Z,1017.58
2019-06-25T03:51:58.364Z,1017.59
2019-06-25T03:53:08.331Z,1017.62
2019-06-25T03:54:18.363Z,1017.62
2019-06-25T03:55:28.068Z,1017.59
2019-06-25T03:56:38.052Z,1017.57
2019-06-25T03:57:48.039Z,1017.6
2019-06-25T03:58:57.997Z,1017.6
2019-06-25T04:00:07.978Z,1017.59
2019-06-25T04:01:17.929Z,1017.62
2019-06-25T04:02:27.914Z,1017.6
2019-06-25T04:03:37.869Z,1017.66
2019-06-25T04:04:47.884Z,1017.63
2019-06-25T04:05:57.872Z,1017.61
2019-06-25T04:07:07.849Z,1017.64
2019-06-25T04:08:17.857Z,1017.66
2019-06-25T04:09:27.634Z,1017.69
2019-06-25T04:10:37.601Z,1017.68
2019-06-25T04:11:47.579Z,1017.7
2019-06-25T04:13:00.341Z,1017.7
2019-06-25T04:14:10.295Z,1017.69
2019-06-25T04:15:20.509Z,1017.69
2019-06-25T04:16:30.463Z,1017.64
2019-06-25T04:17:40.438Z,1017.69
2019-06-25T04:18:50.177Z,1017.69
2019-06-25T04:19:59.622Z,1017.77
2019-06-25T04:21:09.587Z,1017.73
2019-06-25T04:22:19.051Z,1017.72
2019-06-25T04:23:29.047Z,1017.73
2019-06-25T04:24:39.025Z,1017.76
2019-06-25T04:25:48.720Z,1017.78
2019-06-25T04:26:58.681Z,1017.78
2019-06-25T04:28:08.419Z,1017.81
2019-06-25T04:29:18.145Z,1017.78
2019-06-25T04:30:28.136Z,1017.79
2019-06-25T04:31:38.127Z,1017.77
2019-06-25T04:32:48.148Z,1017.82
2019-06-25T04:33:58.140Z,1017.81
2019-06-25T04:35:08.169Z,1017.79
2019-06-25T04:36:17.879Z,1017.82
2019-06-25T04:37:27.858Z,1017.85
2019-06-25T04:38:37.572Z,1017.83
2019-06-25T04:39:47.521Z,1017.82
2019-06-25T04:40:57.491Z,1017.83
2019-06-25T04:42:07.206Z,1017.83
2019-06-25T04:43:17.200Z,1017.86
2019-06-25T04:44:26.912Z,1017.88
2019-06-25T04:45:36.893Z,1017.89
2019-06-25T04:46:46.700Z,1017.89
2019-06-25T04:47:56.699Z,1017.92
2019-06-25T04:49:06.738Z,1017.94
2019-06-25T04:50:16.788Z,1017.95
2019-06-25T04:51:26.781Z,1017.94
2019-06-25T04:52:36.494Z,1017.94
2019-06-25T04:53:46.237Z,1017.99
2019-06-25T04:54:56.199Z,1017.99
2019-06-25T04:56:05.686Z,1017.96
2019-06-25T04:57:15.640Z,1017.97
2019-06-25T04:58:25.347Z,1017.97
2019-06-25T04:59:35.071Z,1017.96
2019-06-25T05:00:44.320Z,1017.98
2019-06-25T05:01:54.285Z,1017.95
2019-06-25T05:03:04.262Z,1018
2019-06-25T05:04:14.215Z,1017.99
2019-06-25T05:05:24.375Z,1017.96
2019-06-25T05:06:33.850Z,1018
2019-06-25T05:07:43.813Z,1018
2019-06-25T05:08:53.718Z,1017.98
2019-06-25T05:10:03.967Z,1017.98
2019-06-25T05:11:13.714Z,1018
2019-06-25T05:12:23.669Z,1018.04
2019-06-25T05:13:33.114Z,1017.99
2019-06-25T05:14:43.069Z,1017.99
2019-06-25T05:15:53.039Z,1018.02
2019-06-25T05:17:03.096Z,1018.07
2019-06-25T05:18:13.739Z,1018.01
2019-06-25T05:19:23.448Z,1018
2019-06-25T05:20:32.887Z,1018
2019-06-25T05:21:42.859Z,1017.98
2019-06-25T05:22:52.564Z,1017.99
2019-06-25T05:24:02.565Z,1017.96
2019-06-25T05:25:12.543Z,1017.93
2019-06-25T05:26:22.508Z,1018.01
2019-06-25T05:27:32.481Z,1017.96
2019-06-25T05:28:42.429Z,1017.98
2019-06-25T05:29:52.455Z,1018
2019-06-25T05:31:02.717Z,1017.94
2019-06-25T05:32:12.561Z,1017.99
2019-06-25T05:33:22.549Z,1018.01
2019-06-25T05:34:32.248Z,1017.97
2019-06-25T05:35:42.214Z,1018
2019-06-25T05:36:52.210Z,1018.11
2019-06-25T05:38:02.191Z,1018
2019-06-25T05:39:12.154Z,1018.05
2019-06-25T05:40:21.646Z,1018.01
2019-06-25T05:41:31.622Z,1018.01
2019-06-25T05:42:41.355Z,1018
2019-06-25T05:43:51.319Z,1018.03
2019-06-25T05:45:01.049Z,1018.01
2019-06-25T05:46:10.778Z,1018.02
2019-06-25T05:47:20.765Z,1018.01
2019-06-25T05:48:30.845Z,1018
2019-06-25T05:49:40.816Z,1018.05
2019-06-25T05:50:50.536Z,1018.04
2019-06-25T05:52:00.495Z,1018.06
2019-06-25T05:53:10.489Z,1018.05
2019-06-25T05:54:20.481Z,1018.03
2019-06-25T05:55:30.566Z,1018.05
2019-06-25T05:56:40.342Z,1018.06
2019-06-25T05:57:50.072Z,1018.05
2019-06-25T05:58:59.549Z,1018.04
2019-06-25T06:00:09.582Z,1018.05
2019-06-25T06:01:19.613Z,1018.04
2019-06-25T06:02:29.608Z,1018.06
2019-06-25T06:03:39.633Z,1018.11
2019-06-25T06:04:49.683Z,1018.07
2019-06-25T06:05:59.463Z,1018.12
2019-06-25T06:07:09.234Z,1018.08
2019-06-25T06:08:18.705Z,1018.07
2019-06-25T06:09:28.413Z,1018.1
2019-06-25T06:10:38.137Z,1018.07
2019-06-25T06:11:47.851Z,1018.13
2019-06-25T06:12:57.829Z,1018.13
2019-06-25T06:14:07.625Z,1018.13
2019-06-25T06:15:17.126Z,1018.15
2019-06-25T06:16:26.604Z,1018.16
2019-06-25T06:17:36.613Z,1018.21
2019-06-25T06:18:46.620Z,1018.16
2019-06-25T06:19:56.375Z,1018.19
2019-06-25T06:21:06.270Z,1018.18
2019-06-25T06:22:16.332Z,1018.21
2019-06-25T06:23:26.084Z,1018.19
2019-06-25T06:24:36.116Z,1018.16
2019-06-25T06:25:46.347Z,1018.18
2019-06-25T06:26:56.338Z,1018.2
2019-06-25T06:28:06.119Z,1018.16
2019-06-25T06:29:16.429Z,1018.17
2019-06-25T06:30:26.405Z,1018.16
2019-06-25T06:31:40.901Z,1018.14
2019-06-25T06:32:50.658Z,1018.06
2019-06-25T06:34:00.683Z,1018.1
2019-06-25T06:35:10.733Z,1018.11
2019-06-25T06:36:20.508Z,1018.13
2019-06-25T06:37:30.507Z,1018.07
2019-06-25T06:38:40.470Z,1018.11
2019-06-25T06:39:50.437Z,1018.07
2019-06-25T06:41:03.137Z,1018.04
2019-06-25T06:42:12.847Z,1018.05
2019-06-25T06:43:22.805Z,1018.11
2019-06-25T06:44:32.791Z,1018.1
2019-06-25T06:45:42.586Z,1018.1
2019-06-25T06:46:52.539Z,1018.17
2019-06-25T06:48:02.071Z,1018.06
2019-06-25T06:49:12.116Z,1018.17
2019-06-25T06:50:22.133Z,1018.09
2019-06-25T06:51:32.118Z,1018.09
2019-06-25T06:52:42.100Z,1018.1
2019-06-25T06:53:52.088Z,1018.07
2019-06-25T06:55:01.785Z,1018.11
2019-06-25T06:56:12.020Z,1018.15
2019-06-25T06:57:22.077Z,1018.08
2019-06-25T06:58:32.202Z,1018.09
2019-06-25T06:59:41.722Z,1018.1
2019-06-25T07:00:51.468Z,1018.12
2019-06-25T07:02:00.704Z,1018.13
2019-06-25T07:03:10.479Z,1018.07
2019-06-25T07:04:20.194Z,1018.07
2019-06-25T07:05:30.169Z,1018.03
2019-06-25T07:06:40.183Z,1018.18
2019-06-25T07:07:50.023Z,1017.99
2019-06-25T07:09:00.362Z,1017.98
2019-06-25T07:10:10.401Z,1018.01
2019-06-25T07:11:20.368Z,1018.01
2019-06-25T07:12:30.095Z,1017.98
2019-06-25T07:13:40.065Z,1017.94
2019-06-25T07:14:50.067Z,1018.1
2019-06-25T07:15:59.875Z,1017.9
2019-06-25T07:17:09.866Z,1017.95
2019-06-25T07:18:19.961Z,1017.88
2019-06-25T07:19:29.436Z,1017.91
2019-06-25T07:20:39.153Z,1017.97
2019-06-25T07:21:49.122Z,1017.82
2019-06-25T07:22:58.843Z,1017.91
2019-06-25T07:24:08.841Z,1017.92
2019-06-25T07:25:18.662Z,1017.9
2019-06-25T07:26:28.634Z,1018.05
2019-06-25T07:27:42.061Z,1017.9
2019-06-25T07:28:53.567Z,1017.91
2019-06-25T07:30:03.073Z,1017.91
2019-06-25T07:31:13.060Z,1017.9
2019-06-25T07:32:22.821Z,1017.87
2019-06-25T07:33:34.010Z,1017.82
2019-06-25T07:34:43.863Z,1017.92
2019-06-25T07:35:54.122Z,1017.86
2019-06-25T07:37:03.853Z,1017.83
2019-06-25T07:38:13.818Z,1017.87
2019-06-25T07:39:23.569Z,1017.85
2019-06-25T07:40:33.543Z,1017.85
2019-06-25T07:41:43.282Z,1017.87
2019-06-25T07:42:53.309Z,1017.83
2019-06-25T07:44:03.334Z,1017.9
2019-06-25T07:45:13.385Z,1017.75
2019-06-25T07:46:23.115Z,1017.79
2019-06-25T07:47:32.837Z,1017.81
2019-06-25T07:48:42.565Z,1017.83
2019-06-25T07:49:52.537Z,1017.77
2019-06-25T07:51:02.882Z,1017.78
2019-06-25T07:52:13.031Z,1017.83
2019-06-25T07:53:23.082Z,1017.88
2019-06-25T07:54:33.063Z,1017.84
2019-06-25T07:55:43.043Z,1018.02
2019-06-25T07:56:53.025Z,1017.85
2019-06-25T07:58:03.063Z,1017.77
2019-06-25T07:59:12.827Z,1017.89
2019-06-25T08:00:22.697Z,1017.79
2019-06-25T08:01:32.656Z,1017.85
2019-06-25T08:02:42.174Z,1017.78
2019-06-25T08:03:51.662Z,1017.78
2019-06-25T08:05:01.706Z,1017.84
2019-06-25T08:06:11.436Z,1017.85
2019-06-25T08:07:21.410Z,1017.79
2019-06-25T08:08:31.384Z,1017.74
2019-06-25T08:09:41.367Z,1017.73
2019-06-25T08:10:51.348Z,1017.77
2019-06-25T08:12:01.332Z,1017.79
2019-06-25T08:13:11.415Z,1017.82
2019-06-25T08:14:21.181Z,1017.72
2019-06-25T08:15:31.171Z,1017.73
2019-06-25T08:16:41.414Z,1017.74
2019-06-25T08:17:51.492Z,1017.73
2019-06-25T08:19:01.536Z,1017.77
2019-06-25T08:20:11.512Z,1017.74
2019-06-25T08:21:21.697Z,1017.71
2019-06-25T08:22:31.685Z,1017.82
2019-06-25T08:23:41.758Z,1017.71
2019-06-25T08:24:51.808Z,1017.75
2019-06-25T08:26:01.792Z,1017.81
2019-06-25T08:27:11.767Z,1017.73
2019-06-25T08:28:21.746Z,1017.71
2019-06-25T08:29:31.739Z,1017.71
2019-06-25T08:30:41.819Z,1017.73
2019-06-25T08:31:51.901Z,1017.65
2019-06-25T08:33:01.696Z,1017.66
2019-06-25T08:34:11.725Z,1017.69
2019-06-25T08:35:21.478Z,1017.71
2019-06-25T08:36:31.899Z,1017.67
2019-06-25T08:37:41.622Z,1017.67
2019-06-25T08:38:51.420Z,1017.7
2019-06-25T08:40:01.177Z,1017.64
2019-06-25T08:41:26.666Z,1017.7
2019-06-25T08:42:36.890Z,1017.68
2019-06-25T08:43:46.861Z,1017.63
2019-06-25T08:44:56.822Z,1017.62
2019-06-25T08:46:10.692Z,1017.62
2019-06-25T08:47:20.736Z,1017.59
2019-06-25T08:48:30.248Z,1017.66
2019-06-25T08:49:40.300Z,1017.65
2019-06-25T08:50:50.317Z,1017.57
2019-06-25T08:52:00.343Z,1017.66
2019-06-25T08:53:10.064Z,1017.69
2019-06-25T08:54:20.026Z,1017.62
2019-06-25T08:55:30.057Z,1017.59
2019-06-25T08:56:39.786Z,1017.66
2019-06-25T08:57:49.762Z,1017.62
2019-06-25T08:58:59.728Z,1017.64
2019-06-25T09:00:09.453Z,1017.59
2019-06-25T09:01:19.488Z,1017.55
2019-06-25T09:02:28.999Z,1017.63
2019-06-25T09:03:38.981Z,1017.55
2019-06-25T09:04:57.773Z,1017.58
2019-06-25T09:06:13.909Z,1017.58
2019-06-25T09:07:23.913Z,1017.65
2019-06-25T09:08:33.627Z,1017.61
2019-06-25T09:09:43.803Z,1017.67
2019-06-25T09:10:53.800Z,1017.62
2019-06-25T09:12:03.780Z,1017.64
2019-06-25T09:13:13.832Z,1017.57
2019-06-25T09:14:23.647Z,1017.62
2019-06-25T09:15:33.381Z,1017.69
2019-06-25T09:16:43.407Z,1017.57
2019-06-25T09:17:53.525Z,1017.65
2019-06-25T09:19:03.668Z,1017.66
2019-06-25T09:20:13.421Z,1017.65
2019-06-25T09:21:23.392Z,1017.67
2019-06-25T09:22:33.098Z,1017.66
2019-06-25T09:23:42.853Z,1017.61
2019-06-25T09:24:52.857Z,1017.66
2019-06-25T09:26:02.586Z,1017.59
2019-06-25T09:27:12.354Z,1017.59
2019-06-25T09:28:22.101Z,1017.63
2019-06-25T09:29:32.096Z,1017.68
2019-06-25T09:30:45.754Z,1017.62
2019-06-25T09:31:55.930Z,1017.66
2019-06-25T09:33:05.955Z,1017.61
2019-06-25T09:34:15.933Z,1017.62
2019-06-25T09:35:25.674Z,1017.52
2019-06-25T09:36:35.642Z,1017.54
2019-06-25T09:37:45.620Z,1017.56
2019-06-25T09:38:55.364Z,1017.6
2019-06-25T09:40:05.094Z,1017.55
2019-06-25T09:41:15.107Z,1017.6
2019-06-25T09:42:24.885Z,1017.62
2019-06-25T09:43:34.878Z,1017.57
2019-06-25T09:45:00.142Z,1017.46
2019-06-25T09:46:10.363Z,1017.57
2019-06-25T09:47:20.107Z,1017.5
2019-06-25T09:48:30.118Z,1017.47
2019-06-25T09:49:40.138Z,1017.46
2019-06-25T09:50:50.127Z,1017.57
2019-06-25T09:51:59.845Z,1017.45
2019-06-25T09:53:09.692Z,1017.53
2019-06-25T09:54:22.603Z,1017.51
2019-06-25T09:55:32.342Z,1017.57
2019-06-25T09:56:42.346Z,1017.49
2019-06-25T09:57:52.448Z,1017.53
2019-06-25T09:59:02.294Z,1017.53
2019-06-25T10:00:12.321Z,1017.59
2019-06-25T10:01:26.126Z,1017.51
2019-06-25T10:02:52.444Z,1017.59
2019-06-25T10:04:02.216Z,1017.48
2019-06-25T10:05:12.282Z,1017.48
2019-06-25T10:06:37.916Z,1017.49
2019-06-25T10:07:47.890Z,1017.5
2019-06-25T10:08:57.699Z,1017.51
2019-06-25T10:10:07.752Z,1017.57
2019-06-25T10:11:17.858Z,1017.55
2019-06-25T10:12:27.962Z,1017.48
2019-06-25T10:13:38.051Z,1017.49
2019-06-25T10:14:47.527Z,1017.41
2019-06-25T10:15:57.643Z,1017.45
2019-06-25T10:17:07.645Z,1017.52
2019-06-25T10:18:17.116Z,1017.5
2019-06-25T10:19:43.768Z,1017.49
2019-06-25T10:20:53.500Z,1017.5
2019-06-25T10:22:03.257Z,1017.51
2019-06-25T10:23:13.307Z,1017.44
2019-06-25T10:24:23.418Z,1017.48
2019-06-25T10:25:33.398Z,1017.52
2019-06-25T10:26:43.384Z,1017.52
2019-06-25T10:27:53.449Z,1017.52
2019-06-25T10:29:03.495Z,1017.54
2019-06-25T10:30:13.482Z,1017.51
2019-06-25T10:31:23.498Z,1017.6
2019-06-25T10:32:33.792Z,1017.58
2019-06-25T10:33:43.551Z,1017.58
2019-06-25T10:34:53.030Z,1017.53
2019-06-25T10:36:07.799Z,1017.51
2019-06-25T10:37:17.519Z,1017.59
2019-06-25T10:38:27.525Z,1017.52
2019-06-25T10:39:37.552Z,1017.52
2019-06-25T10:40:47.311Z,1017.49
2019-06-25T10:41:57.468Z,1017.46
2019-06-25T10:43:07.438Z,1017.51
2019-06-25T10:44:17.162Z,1017.43
2019-06-25T10:45:27.193Z,1017.3
2019-06-25T10:46:37.274Z,1017.42
2019-06-25T10:47:47.357Z,1017.47
2019-06-25T10:48:57.349Z,1017.41
2019-06-25T10:50:07.131Z,1017.39
2019-06-25T10:51:17.291Z,1017.45
2019-06-25T10:52:27.325Z,1017.44
2019-06-25T10:53:37.056Z,1017.45
2019-06-25T10:54:47.098Z,1017.39
2019-06-25T10:55:57.116Z,1017.46
2019-06-25T10:57:06.665Z,1017.54
2019-06-25T10:58:18.826Z,1017.42
2019-06-25T10:59:28.847Z,1017.39
2019-06-25T11:00:38.838Z,1017.39
2019-06-25T11:01:48.816Z,1017.38
2019-06-25T11:02:59.099Z,1017.32
2019-06-25T11:04:08.840Z,1017.26
2019-06-25T11:05:18.578Z,1017.19
2019-06-25T11:06:28.313Z,1017.26
2019-06-25T11:07:39.170Z,1017.23
2019-06-25T11:08:49.010Z,1017.16
2019-06-25T11:09:58.767Z,1017.25
2019-06-25T11:11:08.497Z,1017.25
2019-06-25T11:12:18.498Z,1017.24
2019-06-25T11:13:28.482Z,1017.36
2019-06-25T11:14:38.217Z,1017.32
2019-06-25T11:15:48.435Z,1017.3
2019-06-25T11:16:58.430Z,1017.27
2019-06-25T11:18:09.738Z,1017.26
2019-06-25T11:19:19.678Z,1017.27
2019-06-25T11:20:29.387Z,1017.27
2019-06-25T11:21:39.446Z,1017.23
2019-06-25T11:22:49.188Z,1017.23
2019-06-25T11:23:58.929Z,1017.31
2019-06-25T11:25:09.173Z,1017.2
2019-06-25T11:26:23.035Z,1017.22
2019-06-25T11:27:33.620Z,1017.18
2019-06-25T11:28:43.391Z,1017.29
2019-06-25T11:29:53.109Z,1017.23
2019-06-25T11:31:03.331Z,1017.25
2019-06-25T11:32:13.487Z,1017.3
2019-06-25T11:33:23.213Z,1017.22
2019-06-25T11:34:32.986Z,1017.27
2019-06-25T11:35:42.563Z,1017.22
2019-06-25T11:36:52.575Z,1017.17
2019-06-25T11:38:03.019Z,1017.12
2019-06-25T11:39:13.001Z,1017.13
2019-06-25T11:40:23.080Z,1017.11
2019-06-25T11:41:33.070Z,1017.11
2019-06-25T11:42:42.827Z,1017.05
2019-06-25T11:43:52.864Z,1017.05
2019-06-25T11:45:02.855Z,1017.11
2019-06-25T11:46:13.141Z,1017.2
2019-06-25T11:47:27.398Z,1017.25
2019-06-25T11:48:37.178Z,1017.14
2019-06-25T11:49:47.201Z,1017.17
2019-06-25T11:50:57.191Z,1017.12
2019-06-25T11:52:10.009Z,1017.06
2019-06-25T11:53:20.867Z,1017.11
2019-06-25T11:54:30.682Z,1017.13
2019-06-25T11:55:40.658Z,1017.05
2019-06-25T11:56:50.675Z,1017.08
2019-06-25T11:58:00.433Z,1017.03
2019-06-25T11:59:10.303Z,1016.94
2019-06-25T12:00:20.025Z,1017.02
2019-06-25T12:01:30.005Z,1017.07
2019-06-25T12:02:39.742Z,1016.99
2019-06-25T12:03:53.690Z,1016.94
2019-06-25T12:05:03.917Z,1016.92
2019-06-25T12:06:13.907Z,1016.91
2019-06-25T12:07:58.510Z,1016.91
2019-06-25T12:09:08.506Z,1016.89
2019-06-25T12:10:18.515Z,1016.97
2019-06-25T12:11:28.521Z,1017
2019-06-25T12:12:38.636Z,1016.89
2019-06-25T12:13:48.776Z,1016.85
2019-06-25T12:14:58.873Z,1016.83
2019-06-25T12:16:08.955Z,1016.87
2019-06-25T12:17:18.430Z,1016.87
2019-06-25T12:18:28.419Z,1016.87
2019-06-25T12:19:47.787Z,1016.84
2019-06-25T12:20:58.170Z,1016.93
2019-06-25T12:22:07.884Z,1016.9
2019-06-25T12:23:17.873Z,1016.84
2019-06-25T12:24:27.898Z,1016.77
2019-06-25T12:25:37.738Z,1016.77
2019-06-25T12:26:47.468Z,1016.73
2019-06-25T12:27:59.441Z,1016.73
2019-06-25T12:29:09.419Z,1016.75
2019-06-25T12:30:19.159Z,1016.84
2019-06-25T12:31:29.168Z,1016.79
2019-06-25T12:32:38.913Z,1016.76
2019-06-25T12:33:49.016Z,1016.86
2019-06-25T12:34:59.458Z,1016.83
2019-06-25T12:36:09.637Z,1016.85
2019-06-25T12:37:19.626Z,1016.74
2019-06-25T12:38:29.692Z,1016.81
2019-06-25T12:39:39.828Z,1016.73
2019-06-25T12:40:49.564Z,1016.82
2019-06-25T12:41:59.363Z,1016.74
2019-06-25T12:43:09.348Z,1016.73
2019-06-25T12:44:19.086Z,1016.72
2019-06-25T12:45:28.840Z,1016.68
2019-06-25T12:46:40.731Z,1016.66
2019-06-25T12:48:06.439Z,1016.6
2019-06-25T12:49:16.203Z,1016.64
2019-06-25T12:50:25.960Z,1016.6
2019-06-25T12:51:35.938Z,1016.57
2019-06-25T12:52:45.908Z,1016.57
2019-06-25T12:53:55.718Z,1016.61
2019-06-25T12:55:05.478Z,1016.64
2019-06-25T12:56:15.484Z,1016.62
2019-06-25T12:57:24.712Z,1016.65
2019-06-25T12:58:34.754Z,1016.66
2019-06-25T12:59:44.488Z,1016.59
2019-06-25T13:00:54.239Z,1016.65
2019-06-25T13:02:04.381Z,1016.59
2019-06-25T13:03:16.468Z,1016.57
2019-06-25T13:04:25.989Z,1016.57
2019-06-25T13:05:36.322Z,1016.62
2019-06-25T13:06:46.316Z,1016.61
2019-06-25T13:07:56.302Z,1016.53
2019-06-25T13:09:06.285Z,1016.51
2019-06-25T13:10:16.286Z,1016.48
2019-06-25T13:11:26.020Z,1016.45
2019-06-25T13:12:36.204Z,1016.49
2019-06-25T13:13:46.429Z,1016.48
2019-06-25T13:14:56.454Z,1016.49
2019-06-25T13:16:06.237Z,1016.45
2019-06-25T13:17:16.006Z,1016.48
2019-06-25T13:18:26.111Z,1016.49
2019-06-25T13:19:35.937Z,1016.46
2019-06-25T13:20:45.724Z,1016.44
2019-06-25T13:21:55.707Z,1016.45
2019-06-25T13:23:04.961Z,1016.34
2019-06-25T13:24:14.747Z,1016.34
2019-06-25T13:25:24.815Z,1016.34
2019-06-25T13:26:34.845Z,1016.39
2019-06-25T13:27:44.593Z,1016.33
2019-06-25T13:28:54.758Z,1016.34
2019-06-25T13:30:05.992Z,1016.3
2019-06-25T13:31:15.836Z,1016.23
2019-06-25T13:32:25.620Z,1016.21
2019-06-25T13:33:35.668Z,1016.16
2019-06-25T13:34:45.661Z,1016.16
2019-06-25T13:35:55.754Z,1016.2
2019-06-25T13:37:05.737Z,1016.15
2019-06-25T13:38:15.247Z,1016.21
2019-06-25T13:39:25.006Z,1016.21
2019-06-25T13:40:34.993Z,1016.14
2019-06-25T13:41:45.060Z,1016.16
2019-06-25T13:43:12.659Z,1016.25
2019-06-25T13:44:22.553Z,1016.22
2019-06-25T13:45:32.667Z,1016.2
2019-06-25T13:46:42.660Z,1016.16
2019-06-25T13:47:52.391Z,1016.23
2019-06-25T13:49:21.415Z,1016.13
2019-06-25T13:50:31.169Z,1016.15
2019-06-25T13:51:40.875Z,1016.11
2019-06-25T13:52:50.618Z,1016.22
2019-06-25T13:54:00.610Z,1016.12
2019-06-25T13:55:10.581Z,1016.08
2019-06-25T13:56:20.381Z,1016.09
2019-06-25T13:57:30.465Z,1016.03
2019-06-25T13:58:56.212Z,1016.04
2019-06-25T14:00:05.926Z,1016.01
2019-06-25T14:01:20.446Z,1016.01
2019-06-25T14:02:30.187Z,1016.05
2019-06-25T14:03:39.943Z,1016.02
2019-06-25T14:04:49.960Z,1016.03
2019-06-25T14:06:00.005Z,1016.01
2019-06-25T14:07:09.966Z,1016.01
2019-06-25T14:08:20.010Z,1016
2019-06-25T14:09:29.846Z,1016.05
2019-06-25T14:10:39.580Z,1015.99
2019-06-25T14:11:49.574Z,1015.99
2019-06-25T14:13:01.632Z,1016.03